createdAt,value
2019-03-21T00:04:03.016Z,0.53
2019-03-21T00:09:11.714Z,0.40
2019-03-21T00:14:27.172Z,0.50
2019-03-21T00:19:30.631Z,0.53
2019-03-21T00:24:34.100Z,0.50
2019-03-21T00:29:37.572Z,0.45
2019-03-21T00:34:41.027Z,0.40
2019-03-21T00:39:44.499Z,0.45
2019-03-21T00:44:47.962Z,0.50
2019-03-21T00:49:51.423Z,0.40
2019-03-21T00:54:54.901Z,0.60
2019-03-21T00:59:58.357Z,0.60
2019-03-21T01:05:01.815Z,0.90
2019-03-21T01:10:17.064Z,0.40
2019-03-21T01:15:20.526Z,0.30
2019-03-21T01:20:23.980Z,0.40
2019-03-21T01:25:33.712Z,0.50
2019-03-21T01:30:37.171Z,0.40
2019-03-21T01:35:41.465Z,0.50
2019-03-21T01:40:50.552Z,0.57
2019-03-21T01:45:54.043Z,0.40
2019-03-21T01:50:57.472Z,0.40
2019-03-21T01:56:00.925Z,0.40
2019-03-21T02:01:04.626Z,0.30
2019-03-21T02:06:08.079Z,0.30
2019-03-21T02:11:11.605Z,0.30
2019-03-21T02:16:15.060Z,0.37
2019-03-21T02:21:18.515Z,0.40
2019-03-21T02:26:21.975Z,0.33
2019-03-21T02:31:25.442Z,0.47
2019-03-21T02:36:28.905Z,0.57
2019-03-21T02:41:32.361Z,0.40
2019-03-21T02:46:35.825Z,0.40
2019-03-21T02:51:39.285Z,0.40
2019-03-21T02:56:42.741Z,0.40
2019-03-21T03:01:46.206Z,0.30
2019-03-21T03:06:49.657Z,0.30
2019-03-21T03:11:53.129Z,0.50
2019-03-21T03:16:56.587Z,0.50
2019-03-21T03:22:00.051Z,0.30
2019-03-21T03:27:03.517Z,0.30
2019-03-21T03:32:06.972Z,0.47
2019-03-21T03:37:10.430Z,0.35
2019-03-21T03:42:14.180Z,0.50
2019-03-21T03:47:17.607Z,0.53
2019-03-21T03:52:21.068Z,0.30
2019-03-21T03:57:24.594Z,0.60
2019-03-21T04:02:28.053Z,0.72
2019-03-21T04:07:31.521Z,0.50
2019-03-21T04:12:35.141Z,0.50
2019-03-21T04:17:38.597Z,0.40
2019-03-21T04:22:42.821Z,0.50
2019-03-21T04:27:46.253Z,0.30
2019-03-21T04:32:49.713Z,0.40
2019-03-21T04:37:53.165Z,0.40
2019-03-21T04:42:56.621Z,0.40
2019-03-21T04:48:00.078Z,0.30
2019-03-21T04:53:03.532Z,0.50
2019-03-21T04:58:07.666Z,0.30
2019-03-21T05:03:14.018Z,0.40
2019-03-21T05:08:17.506Z,0.47
2019-03-21T05:13:20.960Z,0.50
2019-03-21T05:18:27.542Z,0.63
2019-03-21T05:23:31.088Z,0.62
2019-03-21T05:28:34.557Z,0.30
2019-03-21T05:33:38.028Z,0.50
2019-03-21T05:38:41.502Z,0.40
2019-03-21T05:43:50.967Z,0.30
2019-03-21T05:48:54.442Z,0.50
2019-03-21T05:53:57.918Z,0.53
2019-03-21T05:59:01.412Z,0.40
2019-03-21T06:04:04.869Z,0.30
2019-03-21T06:09:11.997Z,0.53
2019-03-21T06:14:15.465Z,0.47
2019-03-21T06:19:22.000Z,0.50
2019-03-21T06:24:52.908Z,0.60
2019-03-21T06:29:56.931Z,0.60
2019-03-21T06:35:00.402Z,0.50
2019-03-21T06:40:04.696Z,0.50
2019-03-21T06:45:08.127Z,0.47
2019-03-21T06:50:11.608Z,0.50
2019-03-21T06:55:15.080Z,0.50
2019-03-21T07:00:18.553Z,0.55
2019-03-21T07:05:22.034Z,0.50
2019-03-21T07:10:25.502Z,0.45
2019-03-21T07:15:28.974Z,0.70
2019-03-21T07:20:32.444Z,0.40
2019-03-21T07:25:35.919Z,0.50
2019-03-21T07:30:39.394Z,0.47
2019-03-21T07:35:42.867Z,0.40
2019-03-21T07:40:46.343Z,0.40
2019-03-21T07:45:49.820Z,1.32
2019-03-21T07:50:53.294Z,5.08
2019-03-21T07:55:56.777Z,4.70
2019-03-21T08:01:00.249Z,5.12
2019-03-21T08:06:03.741Z,5.00
2019-03-21T08:11:07.227Z,4.55
2019-03-21T08:16:10.724Z,5.50
2019-03-21T08:21:14.203Z,5.50
2019-03-21T08:26:17.678Z,5.33
2019-03-21T08:31:21.157Z,5.10
2019-03-21T08:36:24.625Z,5.03
2019-03-21T08:41:28.110Z,5.42
2019-03-21T08:46:31.581Z,5.10
2019-03-21T08:51:35.057Z,5.80
2019-03-21T08:56:38.534Z,4.83
2019-03-21T09:01:42.069Z,4.15
2019-03-21T09:06:45.544Z,3.60
2019-03-21T09:11:49.017Z,2.75
2019-03-21T09:16:52.489Z,2.52
2019-03-21T09:21:55.962Z,2.95
2019-03-21T09:26:59.433Z,2.02
2019-03-21T09:32:02.921Z,2.15
2019-03-21T09:37:06.399Z,2.07
2019-03-21T09:42:09.863Z,2.10
2019-03-21T09:47:13.336Z,1.95
2019-03-21T09:52:16.817Z,1.77
2019-03-21T09:57:20.290Z,2.20
2019-03-21T10:02:23.761Z,2.30
2019-03-21T10:07:27.246Z,2.77
2019-03-21T10:12:30.714Z,2.00
2019-03-21T10:17:34.185Z,3.27
2019-03-21T10:22:37.662Z,3.37
2019-03-21T10:27:41.147Z,3.62
2019-03-21T10:32:44.617Z,2.63
2019-03-21T10:37:48.089Z,3.70
2019-03-21T10:42:51.575Z,4.67
2019-03-21T10:47:55.043Z,4.80
2019-03-21T10:52:59.062Z,5.67
2019-03-21T10:58:02.602Z,3.98
2019-03-21T11:03:06.615Z,4.07
2019-03-21T11:08:10.096Z,3.17
2019-03-21T11:13:13.568Z,3.15
2019-03-21T11:18:17.913Z,3.40
2019-03-21T11:23:21.394Z,2.43
2019-03-21T11:28:24.866Z,2.62
2019-03-21T11:33:28.343Z,1.95
2019-03-21T11:38:31.834Z,2.50
2019-03-21T11:43:35.302Z,2.40
2019-03-21T11:48:38.775Z,2.33
2019-03-21T11:53:42.250Z,2.65
2019-03-21T11:58:45.740Z,2.00
2019-03-21T12:03:49.236Z,2.17
2019-03-21T12:08:52.709Z,1.90
2019-03-21T12:13:56.164Z,2.43
2019-03-21T12:18:59.620Z,2.62
2019-03-21T12:24:03.083Z,2.37
2019-03-21T12:29:06.545Z,2.27
2019-03-21T12:34:10.001Z,2.05
2019-03-21T12:39:13.455Z,2.00
2019-03-21T12:44:16.918Z,1.98
2019-03-21T12:49:20.378Z,1.72
2019-03-21T12:54:23.838Z,2.10
2019-03-21T12:59:27.312Z,1.75
2019-03-21T13:04:30.766Z,1.72
2019-03-21T13:09:34.225Z,1.57
2019-03-21T13:14:37.695Z,2.15
2019-03-21T13:19:41.149Z,1.67
2019-03-21T13:24:44.607Z,1.90
2019-03-21T13:29:48.068Z,2.03
2019-03-21T13:34:51.535Z,1.62
2019-03-21T13:39:54.994Z,1.90
2019-03-21T13:44:58.485Z,2.22
2019-03-21T13:50:01.957Z,1.80
2019-03-21T13:55:09.944Z,1.22
2019-03-21T14:00:16.310Z,1.80
2019-03-21T14:05:19.774Z,1.50
2019-03-21T14:10:23.235Z,1.87
2019-03-21T14:15:26.692Z,1.70
2019-03-21T14:20:30.156Z,1.97
2019-03-21T14:25:33.611Z,1.70
2019-03-21T14:30:37.069Z,1.50
2019-03-21T14:35:40.529Z,1.80
2019-03-21T14:40:43.989Z,1.70
2019-03-21T14:45:47.457Z,1.75
2019-03-21T14:50:50.909Z,1.90
2019-03-21T14:55:54.365Z,1.67
2019-03-21T15:00:57.830Z,1.60
2019-03-21T15:06:01.282Z,1.73
2019-03-21T15:11:16.341Z,1.63
2019-03-21T15:16:10.086Z,1.37
2019-03-21T15:21:13.541Z,1.95
2019-03-21T15:26:16.997Z,1.72
2019-03-21T15:31:20.452Z,2.40
2019-03-21T15:36:23.915Z,2.08
2019-03-21T15:41:27.369Z,1.80
2019-03-21T15:46:30.828Z,1.70
2019-03-21T15:51:34.286Z,2.10
2019-03-21T15:56:37.740Z,1.85
2019-03-21T16:06:51.216Z,1.80
2019-03-21T16:11:54.678Z,1.90
2019-03-21T16:16:58.137Z,1.85
2019-03-21T16:22:01.597Z,2.42
2019-03-21T16:27:05.055Z,1.98
2019-03-21T16:32:08.510Z,2.10
2019-03-21T16:37:12.174Z,2.92
2019-03-21T16:42:15.707Z,2.75
2019-03-21T16:47:19.159Z,2.95
2019-03-21T16:52:22.631Z,3.20
2019-03-21T16:57:26.091Z,4.10
2019-03-21T17:02:29.558Z,4.65
2019-03-21T17:07:33.073Z,3.70
2019-03-21T17:12:36.535Z,4.00
2019-03-21T17:17:39.990Z,4.10
2019-03-21T17:22:43.452Z,3.85
2019-03-21T17:27:46.913Z,4.12
2019-03-21T17:32:50.377Z,5.03
2019-03-21T17:37:53.937Z,4.28
2019-03-21T17:42:56.392Z,3.52
2019-03-21T17:47:59.789Z,3.37
2019-03-21T17:53:03.245Z,4.15
2019-03-21T17:58:06.735Z,3.70
2019-03-21T18:08:13.755Z,3.65
2019-03-21T18:13:17.213Z,3.72
2019-03-21T18:23:30.433Z,4.12
2019-03-21T18:28:33.898Z,4.35
2019-03-21T18:33:37.370Z,4.12
2019-03-21T18:38:40.824Z,3.55
2019-03-21T18:43:44.280Z,3.70
2019-03-21T18:48:47.741Z,3.83
2019-03-21T18:53:51.198Z,3.75
2019-03-21T18:58:54.647Z,4.22
2019-03-21T19:03:58.106Z,3.67
2019-03-21T19:09:01.569Z,4.00
2019-03-21T19:14:05.014Z,3.67
2019-03-21T19:19:08.470Z,3.47
2019-03-21T19:24:11.928Z,3.75
2019-03-21T19:29:15.389Z,3.40
2019-03-21T19:34:18.840Z,3.50
2019-03-21T19:39:22.305Z,2.85
2019-03-21T19:44:25.759Z,2.70
2019-03-21T19:49:29.213Z,3.07
2019-03-21T19:54:32.669Z,2.92
2019-03-21T19:59:36.206Z,3.37
2019-03-21T20:04:39.673Z,3.40
2019-03-21T20:09:43.129Z,3.02
2019-03-21T20:14:46.591Z,3.05
2019-03-21T20:19:50.050Z,2.90
2019-03-21T20:24:53.504Z,3.50
2019-03-21T20:29:56.964Z,3.35
2019-03-21T20:35:00.423Z,3.03
2019-03-21T20:40:06.420Z,3.33
2019-03-21T20:45:12.317Z,2.83
2019-03-21T20:50:16.218Z,3.00
2019-03-21T20:55:19.672Z,4.03
2019-03-21T21:00:24.474Z,3.27
2019-03-21T21:05:27.940Z,3.17
2019-03-21T21:10:31.404Z,3.33
2019-03-21T21:15:34.864Z,2.47
2019-03-21T21:20:38.334Z,3.33
2019-03-21T21:25:41.773Z,2.83
2019-03-21T21:30:45.227Z,2.70
2019-03-21T21:35:48.728Z,2.62
2019-03-21T21:40:52.776Z,2.60
2019-03-21T21:45:56.214Z,2.70
2019-03-21T21:50:59.668Z,2.60
2019-03-21T21:56:03.131Z,2.37
2019-03-21T22:01:06.598Z,2.50
2019-03-21T22:06:10.052Z,2.05
2019-03-21T22:11:13.512Z,2.87
2019-03-21T22:16:16.964Z,2.25
2019-03-21T22:21:20.427Z,2.35
2019-03-21T22:26:29.662Z,2.80
2019-03-21T22:31:29.073Z,2.40
2019-03-21T22:36:32.546Z,2.05
2019-03-21T22:41:35.998Z,1.95
2019-03-21T22:46:39.462Z,2.15
2019-03-21T22:51:42.921Z,2.58
2019-03-21T22:56:46.386Z,2.40
2019-03-21T23:01:49.840Z,2.22
2019-03-21T23:06:53.299Z,2.00
2019-03-21T23:11:56.752Z,2.30
2019-03-21T23:17:00.209Z,2.20
2019-03-21T23:22:03.702Z,2.05
2019-03-21T23:27:07.165Z,2.02
2019-03-21T23:32:10.646Z,2.17
2019-03-21T23:37:14.144Z,2.37
2019-03-21T23:42:17.622Z,1.87
2019-03-21T23:47:21.089Z,2.12
2019-03-21T23:52:24.560Z,2.25
2019-03-21T23:57:28.036Z,1.85
